createdAt,value
2022-08-17T00:00:49.364Z,100259.02
2022-08-17T00:02:08.978Z,100260.03
2022-08-17T00:03:24.888Z,100262.06
2022-08-17T00:04:41.610Z,100263.58
2022-08-17T00:05:58.270Z,100263.51
2022-08-17T00:07:14.664Z,100262.77
2022-08-17T00:08:31.021Z,100258.91
2022-08-17T00:09:49.955Z,100257.62
2022-08-17T00:11:06.332Z,100253.86
2022-08-17T00:12:40.910Z,100254.24
2022-08-17T00:13:44.244Z,100251.55
2022-08-17T00:15:00.627Z,100251.92
2022-08-17T00:16:17.135Z,100254.07
2022-08-17T00:17:33.525Z,100252.31
2022-08-17T00:19:01.941Z,100246.30
2022-08-17T00:20:11.426Z,100252.09
2022-08-17T00:21:27.929Z,100248.81
2022-08-17T00:22:51.211Z,100252.47
2022-08-17T00:24:07.618Z,100251.02
2022-08-17T00:25:24.309Z,100250.32
2022-08-17T00:26:45.208Z,100247.20
2022-08-17T00:28:03.779Z,100247.91
2022-08-17T00:29:20.502Z,100250.42
2022-08-17T00:30:51.360Z,100249.62
2022-08-17T00:32:02.075Z,100249.14
2022-08-17T00:33:25.698Z,100245.50
2022-08-17T00:34:42.295Z,100250.75
2022-08-17T00:35:58.681Z,100250.16
2022-08-17T00:37:15.352Z,100250.05
2022-08-17T00:38:31.732Z,100247.84
2022-08-17T00:39:50.145Z,100245.93
2022-08-17T00:41:06.575Z,100247.42
2022-08-17T00:42:25.394Z,100248.81
2022-08-17T00:43:46.187Z,100244.25
2022-08-17T00:45:02.573Z,100245.92
2022-08-17T00:46:20.898Z,100249.78
2022-08-17T00:47:39.227Z,100244.90
2022-08-17T00:48:55.959Z,100247.80
2022-08-17T00:50:12.332Z,100245.61
2022-08-17T00:51:28.711Z,100243.29
2022-08-17T00:52:47.039Z,100248.92
2022-08-17T00:54:05.564Z,100245.93
2022-08-17T00:55:21.933Z,100248.66
2022-08-17T00:56:38.313Z,100245.29
2022-08-17T00:57:55.556Z,100245.23
2022-08-17T00:59:12.163Z,100245.61
2022-08-17T01:00:28.834Z,100244.73
2022-08-17T01:01:45.201Z,100243.24
2022-08-17T01:03:01.585Z,100239.54
2022-08-17T01:04:17.997Z,100238.58
2022-08-17T01:05:34.417Z,100234.83
2022-08-17T01:06:51.070Z,100229.41
2022-08-17T01:08:07.457Z,100232.62
2022-08-17T01:09:23.819Z,100230.10
2022-08-17T01:10:59.609Z,100229.56
2022-08-17T01:12:01.456Z,100229.08
2022-08-17T01:13:18.122Z,100230.11
2022-08-17T01:14:34.490Z,100229.73
2022-08-17T01:15:50.909Z,100225.94
2022-08-17T01:17:07.272Z,100227.06
2022-08-17T01:18:23.662Z,100221.42
2022-08-17T01:19:40.300Z,100222.23
2022-08-17T01:20:56.732Z,100221.31
2022-08-17T01:22:13.092Z,100220.26
2022-08-17T01:23:29.474Z,100224.75
2022-08-17T01:24:45.837Z,100221.21
2022-08-17T01:26:02.527Z,100221.38
2022-08-17T01:27:20.543Z,100226.09
2022-08-17T01:28:54.181Z,100229.36
2022-08-17T01:29:58.257Z,100228.30
2022-08-17T01:31:14.678Z,100228.73
2022-08-17T01:32:31.038Z,100229.20
2022-08-17T01:33:49.368Z,100231.73
2022-08-17T01:35:05.739Z,100228.41
2022-08-17T01:36:22.159Z,100229.42
2022-08-17T01:37:38.804Z,100228.25
2022-08-17T01:38:55.191Z,100229.59
2022-08-17T01:40:11.590Z,100226.58
2022-08-17T01:41:28.014Z,100228.67
2022-08-17T01:42:44.382Z,100228.52
2022-08-17T01:44:01.044Z,100231.52
2022-08-17T01:45:17.457Z,100231.56
2022-08-17T01:46:33.917Z,100225.25
2022-08-17T01:47:50.326Z,100228.08
2022-08-17T01:49:07.566Z,100233.50
2022-08-17T01:50:24.324Z,100232.48
2022-08-17T01:51:40.705Z,100230.66
2022-08-17T01:52:57.078Z,100227.94
2022-08-17T01:54:14.417Z,100235.05
2022-08-17T01:55:30.878Z,100235.47
2022-08-17T01:56:47.779Z,100229.55
2022-08-17T01:58:04.149Z,100230.60
2022-08-17T01:59:20.538Z,100228.26
2022-08-17T02:00:46.784Z,100221.83
2022-08-17T02:01:58.288Z,100222.30
2022-08-17T02:03:15.063Z,100220.48
2022-08-17T02:04:31.481Z,100221.45
2022-08-17T02:05:47.982Z,100221.87
2022-08-17T02:07:04.373Z,100227.77
2022-08-17T02:08:20.915Z,100230.19
2022-08-17T02:09:42.243Z,100228.84
2022-08-17T02:10:58.615Z,100231.26
2022-08-17T02:12:38.381Z,100231.84
2022-08-17T02:13:38.583Z,100235.28
2022-08-17T02:14:55.148Z,100234.90
2022-08-17T02:16:11.819Z,100234.21
2022-08-17T02:17:28.217Z,100234.84
2022-08-17T02:18:45.529Z,100238.66
2022-08-17T02:20:03.899Z,100233.08
2022-08-17T02:21:20.270Z,100227.12
2022-08-17T02:22:36.971Z,100228.00
2022-08-17T02:23:53.340Z,100228.42
2022-08-17T02:25:09.721Z,100229.70
2022-08-17T02:26:26.385Z,100228.41
2022-08-17T02:27:43.100Z,100225.35
2022-08-17T02:28:59.763Z,100225.84
2022-08-17T02:31:02.028Z,100223.33
2022-08-17T02:31:38.313Z,100223.22
2022-08-17T02:32:54.775Z,100225.26
2022-08-17T02:34:11.150Z,100225.84
2022-08-17T02:35:27.827Z,100225.14
2022-08-17T02:36:44.226Z,100229.05
2022-08-17T02:38:00.610Z,100223.38
2022-08-17T02:39:16.967Z,100222.80
2022-08-17T02:40:36.308Z,100220.00
2022-08-17T02:41:52.891Z,100220.39
2022-08-17T02:43:09.269Z,100222.62
2022-08-17T02:44:39.836Z,100220.96
2022-08-17T02:45:46.869Z,100223.44
2022-08-17T02:47:05.592Z,100220.71
2022-08-17T02:48:31.368Z,100218.40
2022-08-17T02:49:47.545Z,100222.64
2022-08-17T02:51:06.432Z,100216.73
2022-08-17T02:53:01.390Z,100214.70
2022-08-17T02:53:44.023Z,100219.58
2022-08-17T02:55:00.384Z,100219.26
2022-08-17T02:56:17.775Z,100220.23
2022-08-17T02:57:34.135Z,100219.95
2022-08-17T02:58:50.519Z,100219.69
2022-08-17T03:00:07.156Z,100218.98
2022-08-17T03:01:23.610Z,100219.47
2022-08-17T03:02:41.973Z,100217.11
2022-08-17T03:03:58.358Z,100212.71
2022-08-17T03:05:14.720Z,100213.74
2022-08-17T03:06:31.439Z,100213.42
2022-08-17T03:07:47.800Z,100212.39
2022-08-17T03:09:04.192Z,100212.55
2022-08-17T03:10:20.613Z,100211.75
2022-08-17T03:11:37.020Z,100209.72
2022-08-17T03:12:53.653Z,100213.19
2022-08-17T03:14:10.033Z,100209.66
2022-08-17T03:15:26.465Z,100210.37
2022-08-17T03:16:42.844Z,100210.30
2022-08-17T03:18:00.284Z,100209.50
2022-08-17T03:19:20.909Z,100211.92
2022-08-17T03:20:37.335Z,100207.25
2022-08-17T03:21:55.675Z,100209.51
2022-08-17T03:23:12.066Z,100208.86
2022-08-17T03:24:28.717Z,100211.97
2022-08-17T03:25:45.500Z,100209.84
2022-08-17T03:27:04.018Z,100210.16
2022-08-17T03:28:20.468Z,100207.80
2022-08-17T03:29:36.829Z,100210.00
2022-08-17T03:30:55.198Z,100212.34
2022-08-17T03:32:11.872Z,100213.38
2022-08-17T03:33:28.322Z,100212.25
2022-08-17T03:34:44.704Z,100212.52
2022-08-17T03:36:01.121Z,100210.84
2022-08-17T03:37:19.453Z,100214.50
2022-08-17T03:38:39.417Z,100213.48
2022-08-17T03:39:56.997Z,100212.25
2022-08-17T03:41:13.385Z,100207.69
2022-08-17T03:42:32.383Z,100206.73
2022-08-17T03:43:51.205Z,100203.98
2022-08-17T03:45:07.919Z,100204.03
2022-08-17T03:46:28.896Z,100204.73
2022-08-17T03:47:45.511Z,100203.39
2022-08-17T03:49:01.878Z,100204.58
2022-08-17T03:50:18.316Z,100205.86
2022-08-17T03:51:34.959Z,100210.95
2022-08-17T03:52:53.442Z,100211.34
2022-08-17T03:54:09.901Z,100211.77
2022-08-17T03:55:29.461Z,100214.72
2022-08-17T03:56:47.542Z,100210.42
2022-08-17T03:58:04.212Z,100214.72
2022-08-17T03:59:22.700Z,100213.77
2022-08-17T04:00:41.011Z,100214.23
2022-08-17T04:01:57.402Z,100215.69
2022-08-17T04:03:13.785Z,100210.75
2022-08-17T04:04:32.427Z,100211.93
2022-08-17T04:05:48.805Z,100209.68
2022-08-17T04:07:07.164Z,100208.66
2022-08-17T04:08:23.553Z,100208.88
2022-08-17T04:09:41.876Z,100208.61
2022-08-17T04:10:58.528Z,100204.70
2022-08-17T04:12:16.890Z,100205.28
2022-08-17T04:13:35.219Z,100203.34
2022-08-17T04:14:54.848Z,100205.12
2022-08-17T04:16:11.540Z,100205.99
2022-08-17T04:17:28.227Z,100210.50
2022-08-17T04:18:44.620Z,100212.36
2022-08-17T04:20:02.957Z,100219.91
2022-08-17T04:21:21.303Z,100216.38
2022-08-17T04:22:39.671Z,100215.11
2022-08-17T04:23:58.334Z,100216.08
2022-08-17T04:25:16.662Z,100217.95
2022-08-17T04:26:53.422Z,100222.46
2022-08-17T04:27:57.187Z,100223.05
2022-08-17T04:29:15.576Z,100224.77
2022-08-17T04:30:34.307Z,100228.09
2022-08-17T04:31:52.681Z,100234.16
2022-08-17T04:33:11.121Z,100234.90
2022-08-17T04:34:29.539Z,100236.84
2022-08-17T04:35:48.004Z,100241.29
2022-08-17T04:37:07.196Z,100243.81
2022-08-17T04:38:25.495Z,100242.22
2022-08-17T04:39:43.879Z,100242.38
2022-08-17T04:41:00.401Z,100244.41
2022-08-17T04:42:18.761Z,100243.45
2022-08-17T04:43:37.445Z,100240.41
2022-08-17T04:44:55.994Z,100243.28
2022-08-17T04:46:14.407Z,100244.84
2022-08-17T04:47:32.883Z,100245.03
2022-08-17T04:48:50.180Z,100246.53
2022-08-17T04:50:08.888Z,100246.44
2022-08-17T04:51:27.359Z,100249.12
2022-08-17T04:52:45.675Z,100249.45
2022-08-17T04:54:04.079Z,100251.13
2022-08-17T04:55:22.427Z,100251.86
2022-08-17T04:56:41.057Z,100253.16
2022-08-17T04:57:58.378Z,100250.65
2022-08-17T04:59:16.750Z,100251.84
2022-08-17T05:00:35.150Z,100251.59
2022-08-17T05:01:53.551Z,100250.83
2022-08-17T05:03:11.191Z,100252.13
2022-08-17T05:04:34.106Z,100253.09
2022-08-17T05:05:51.232Z,100256.64
2022-08-17T05:07:09.123Z,100259.16
2022-08-17T05:08:26.974Z,100259.63
2022-08-17T05:09:44.586Z,100260.76
2022-08-17T05:11:01.135Z,100261.41
2022-08-17T05:12:19.532Z,100260.56
2022-08-17T05:13:37.866Z,100267.86
2022-08-17T05:14:55.317Z,100265.34
2022-08-17T05:16:12.996Z,100267.22
2022-08-17T05:17:32.624Z,100268.92
2022-08-17T05:18:50.058Z,100267.59
2022-08-17T05:20:07.931Z,100271.17
2022-08-17T05:21:26.132Z,100265.17
2022-08-17T05:22:47.602Z,100268.65
2022-08-17T05:24:06.076Z,100270.26
2022-08-17T05:25:29.811Z,100274.98
2022-08-17T05:26:51.174Z,100266.83
2022-08-17T05:28:10.403Z,100271.33
2022-08-17T05:29:35.289Z,100272.52
2022-08-17T05:30:52.433Z,100268.98
2022-08-17T05:32:38.419Z,100276.30
2022-08-17T05:33:34.691Z,100268.70
2022-08-17T05:34:52.088Z,100264.31
2022-08-17T05:36:10.944Z,100269.19
2022-08-17T05:37:33.626Z,100269.34
2022-08-17T05:38:53.364Z,100271.33
2022-08-17T05:40:12.543Z,100270.14
2022-08-17T05:43:20.984Z,100262.06
2022-08-17T05:44:40.521Z,100255.70
2022-08-17T05:45:58.863Z,100260.56
2022-08-17T05:47:16.297Z,100256.28
2022-08-17T05:48:39.562Z,100261.95
2022-08-17T05:49:55.609Z,100256.72
2022-08-17T05:51:14.494Z,100256.61
2022-08-17T05:52:31.835Z,100257.62
2022-08-17T05:53:49.775Z,100256.23
2022-08-17T05:55:09.095Z,100256.82
2022-08-17T05:56:30.004Z,100255.17
2022-08-17T05:57:53.586Z,100255.06
2022-08-17T05:59:10.625Z,100251.30
2022-08-17T06:00:30.782Z,100252.95
2022-08-17T06:01:50.351Z,100251.94
2022-08-17T06:03:07.907Z,100257.12
2022-08-17T06:04:25.795Z,100254.34
2022-08-17T06:05:44.447Z,100256.48
2022-08-17T06:07:02.833Z,100249.08
2022-08-17T06:08:20.253Z,100249.31
2022-08-17T06:09:39.203Z,100250.42
2022-08-17T06:10:56.832Z,100245.44
2022-08-17T06:12:19.865Z,100248.17
2022-08-17T06:13:38.044Z,100250.38
2022-08-17T06:14:58.656Z,100246.78
2022-08-17T06:16:32.994Z,100246.67
2022-08-17T06:17:44.123Z,100249.25
2022-08-17T06:19:00.648Z,100249.19
2022-08-17T06:20:21.695Z,100245.54
2022-08-17T06:21:39.322Z,100243.73
2022-08-17T06:22:59.547Z,100252.23
2022-08-17T06:24:18.668Z,100248.44
2022-08-17T06:25:39.748Z,100252.77
2022-08-17T06:26:58.000Z,100252.93
2022-08-17T06:28:16.778Z,100249.13
2022-08-17T06:29:34.271Z,100247.16
2022-08-17T06:30:59.496Z,100247.30
2022-08-17T06:32:15.491Z,100248.00
2022-08-17T06:33:37.474Z,100243.70
2022-08-17T06:34:57.316Z,100239.48
2022-08-17T06:36:15.983Z,100241.99
2022-08-17T06:37:35.753Z,100241.23
2022-08-17T06:38:53.496Z,100242.38
2022-08-17T06:40:12.118Z,100243.18
2022-08-17T06:41:30.657Z,100244.36
2022-08-17T06:43:02.330Z,100241.30
2022-08-17T06:44:12.586Z,100244.02
2022-08-17T06:45:35.401Z,100246.33
2022-08-17T06:46:53.179Z,100244.98
2022-08-17T06:48:11.664Z,100243.58
2022-08-17T06:49:29.022Z,100249.16
2022-08-17T06:50:47.931Z,100246.27
2022-08-17T06:52:09.967Z,100243.80
2022-08-17T06:53:32.139Z,100244.12
2022-08-17T06:54:51.033Z,100243.79
2022-08-17T06:56:07.485Z,100241.22
2022-08-17T06:57:25.744Z,100240.53
2022-08-17T06:58:46.679Z,100245.08
2022-08-17T07:00:03.747Z,100246.25
2022-08-17T07:01:24.337Z,100244.48
2022-08-17T07:02:52.332Z,100242.98
2022-08-17T07:04:11.751Z,100248.48
2022-08-17T07:05:31.627Z,100246.61
2022-08-17T07:06:51.067Z,100248.65
2022-08-17T07:08:09.996Z,100245.17
2022-08-17T07:09:32.568Z,100243.45
2022-08-17T07:10:49.983Z,100241.77
2022-08-17T07:12:09.539Z,100242.23
2022-08-17T07:13:27.211Z,100242.28
2022-08-17T07:14:46.881Z,100243.52
2022-08-17T07:16:06.002Z,100243.67
2022-08-17T07:17:46.832Z,100242.70
2022-08-17T07:18:50.223Z,100241.94
2022-08-17T07:20:07.595Z,100241.36
2022-08-17T07:21:26.962Z,100243.66
2022-08-17T07:22:58.157Z,100240.50
2022-08-17T07:24:07.842Z,100243.93
2022-08-17T07:25:27.394Z,100242.97
2022-08-17T07:26:49.050Z,100242.64
2022-08-17T07:28:14.190Z,100244.72
2022-08-17T07:29:34.578Z,100243.65
2022-08-17T07:30:53.542Z,100245.25
2022-08-17T07:32:11.911Z,100244.34
2022-08-17T07:33:32.421Z,100249.69
2022-08-17T07:34:53.175Z,100248.30
2022-08-17T07:36:13.143Z,100244.98
2022-08-17T07:37:35.521Z,100245.45
2022-08-17T07:40:50.885Z,100244.27
2022-08-17T07:42:09.747Z,100248.66
2022-08-17T07:43:29.428Z,100247.09
2022-08-17T07:44:49.067Z,100248.11
2022-08-17T07:46:07.938Z,100250.69
2022-08-17T07:47:26.800Z,100254.75
2022-08-17T07:48:44.131Z,100254.32
2022-08-17T07:50:03.940Z,100253.41
2022-08-17T07:53:12.811Z,100257.43
2022-08-17T07:54:31.855Z,100260.96
2022-08-17T07:55:51.493Z,100261.49
2022-08-17T07:57:10.859Z,100255.45
2022-08-17T07:58:29.192Z,100259.19
2022-08-17T07:59:48.235Z,100252.64
2022-08-17T08:01:08.053Z,100254.20
2022-08-17T08:02:32.335Z,100253.55
2022-08-17T08:03:52.582Z,100252.09
2022-08-17T08:05:11.660Z,100251.29
2022-08-17T08:06:30.517Z,100256.39
2022-08-17T08:07:47.922Z,100257.36
2022-08-17T08:09:07.589Z,100257.36
2022-08-17T08:10:26.460Z,100255.75
2022-08-17T08:11:46.991Z,100262.17
2022-08-17T08:13:08.234Z,100264.48
2022-08-17T08:14:31.143Z,100262.02
2022-08-17T08:15:53.691Z,100264.86
2022-08-17T08:17:13.607Z,100266.30
2022-08-17T08:18:45.927Z,100264.31
2022-08-17T08:19:56.089Z,100265.33
2022-08-17T08:21:13.456Z,100263.23
2022-08-17T08:22:32.416Z,100260.02
2022-08-17T08:23:51.913Z,100260.89
2022-08-17T08:25:09.869Z,100263.12
2022-08-17T08:26:28.181Z,100262.63
2022-08-17T08:27:49.657Z,100263.02
2022-08-17T08:29:09.976Z,100266.88
2022-08-17T08:30:29.479Z,100269.11
2022-08-17T08:31:53.356Z,100267.19
2022-08-17T08:33:15.232Z,100265.80
2022-08-17T08:34:58.959Z,100263.32
2022-08-17T08:35:59.320Z,100265.05
2022-08-17T08:37:25.010Z,100262.47
2022-08-17T08:40:32.280Z,100254.37
2022-08-17T08:42:05.155Z,100254.73
2022-08-17T08:43:27.126Z,100250.55
2022-08-17T08:45:00.264Z,100255.75
2022-08-17T08:46:11.335Z,100248.77
2022-08-17T08:47:30.422Z,100252.30
2022-08-17T08:48:58.316Z,100250.75
2022-08-17T08:50:38.126Z,100245.55
2022-08-17T08:51:41.515Z,100248.44
2022-08-17T08:53:00.013Z,100244.09
2022-08-17T08:54:26.937Z,100249.98
2022-08-17T08:55:44.519Z,100249.17
2022-08-17T08:58:31.617Z,100247.91
2022-08-17T08:59:57.627Z,100241.56
2022-08-17T09:01:16.647Z,100244.95
2022-08-17T09:02:36.821Z,100238.95
2022-08-17T09:03:54.364Z,100245.16
2022-08-17T09:05:14.807Z,100245.75
2022-08-17T09:06:39.809Z,100246.87
2022-08-17T09:07:57.732Z,100254.64
2022-08-17T09:09:16.110Z,100245.95
2022-08-17T09:10:35.438Z,100236.67
2022-08-17T09:12:01.085Z,100252.48
2022-08-17T09:13:18.096Z,100252.81
2022-08-17T09:14:44.953Z,100253.24
2022-08-17T09:16:01.313Z,100260.31
2022-08-17T09:17:19.507Z,100254.09
2022-08-17T09:20:35.748Z,100250.66
2022-08-17T09:21:54.820Z,100250.98
2022-08-17T09:23:22.226Z,100254.77
2022-08-17T09:25:03.491Z,100257.28
2022-08-17T09:25:48.593Z,100259.69
2022-08-17T09:27:06.061Z,100254.97
2022-08-17T09:28:25.969Z,100257.86
2022-08-17T09:29:44.904Z,100253.14
2022-08-17T09:31:03.249Z,100251.17
2022-08-17T09:32:21.588Z,100252.70
2022-08-17T09:33:38.911Z,100254.70
2022-08-17T09:34:57.771Z,100251.05
2022-08-17T09:36:17.401Z,100250.52
2022-08-17T09:37:36.248Z,100243.70
2022-08-17T09:38:55.112Z,100243.60
2022-08-17T09:40:12.541Z,100247.29
2022-08-17T09:41:30.199Z,100246.32
2022-08-17T09:42:48.381Z,100246.97
2022-08-17T09:44:08.560Z,100244.28
2022-08-17T09:45:28.602Z,100248.16
2022-08-17T09:46:47.464Z,100247.50
2022-08-17T09:48:04.793Z,100249.00
2022-08-17T09:49:25.261Z,100248.78
2022-08-17T09:51:03.686Z,100246.58
2022-08-17T09:52:06.534Z,100242.81
2022-08-17T09:53:25.495Z,100249.42
2022-08-17T09:54:44.364Z,100251.23
2022-08-17T09:56:03.186Z,100251.67
2022-08-17T09:57:32.792Z,100250.11
2022-08-17T09:58:44.509Z,100257.08
2022-08-17T10:00:01.846Z,100256.45
2022-08-17T10:01:20.348Z,100257.41
2022-08-17T10:02:39.855Z,100258.31
2022-08-17T10:03:58.173Z,100262.06
2022-08-17T10:05:16.562Z,100260.47
2022-08-17T10:06:35.503Z,100257.52
2022-08-17T10:07:56.624Z,100260.63
2022-08-17T10:09:14.361Z,100258.59
2022-08-17T10:10:32.703Z,100256.17
2022-08-17T10:11:50.865Z,100250.06
2022-08-17T10:13:09.816Z,100251.19
2022-08-17T10:14:37.305Z,100254.73
2022-08-17T10:15:50.346Z,100253.49
2022-08-17T10:17:09.849Z,100251.83
2022-08-17T10:18:30.344Z,100253.33
2022-08-17T10:19:52.577Z,100249.53
2022-08-17T10:21:09.964Z,100249.15
2022-08-17T10:22:34.850Z,100248.93
2022-08-17T10:23:51.438Z,100247.44
2022-08-17T10:25:22.994Z,100244.80
2022-08-17T10:26:40.397Z,100247.86
2022-08-17T10:27:54.763Z,100245.55
2022-08-17T10:29:13.225Z,100242.23
2022-08-17T10:30:32.424Z,100244.31
2022-08-17T10:31:49.774Z,100246.30
2022-08-17T10:33:09.147Z,100245.39
2022-08-17T10:34:28.037Z,100242.92
2022-08-17T10:35:47.413Z,100241.26
2022-08-17T10:37:04.751Z,100242.23
2022-08-17T10:38:21.710Z,100242.70
2022-08-17T10:39:50.523Z,100245.39
2022-08-17T10:41:08.398Z,100252.05
2022-08-17T10:42:32.466Z,100250.59
2022-08-17T10:43:57.921Z,100252.15
2022-08-17T10:45:12.487Z,100257.95
2022-08-17T10:46:31.211Z,100256.82
2022-08-17T10:47:55.617Z,100258.38
2022-08-17T10:49:11.336Z,100258.80
2022-08-17T10:50:30.710Z,100257.52
2022-08-17T10:51:50.327Z,100256.12
2022-08-17T10:53:07.662Z,100258.63
2022-08-17T10:54:26.584Z,100255.97
2022-08-17T10:55:43.952Z,100258.69
2022-08-17T10:57:02.848Z,100257.24
2022-08-17T10:58:20.475Z,100256.33
2022-08-17T10:59:38.817Z,100255.47
2022-08-17T11:00:58.145Z,100256.49
2022-08-17T11:02:16.484Z,100262.77
2022-08-17T11:03:34.857Z,100266.47
2022-08-17T11:04:54.017Z,100267.28
2022-08-17T11:06:13.348Z,100268.62
2022-08-17T11:07:29.759Z,100275.38
2022-08-17T11:08:49.156Z,100275.38
2022-08-17T11:10:06.492Z,100278.65
2022-08-17T11:11:24.327Z,100278.33
2022-08-17T11:12:42.369Z,100283.31
2022-08-17T11:13:59.859Z,100287.65
2022-08-17T11:15:17.193Z,100288.23
2022-08-17T11:16:34.574Z,100290.23
2022-08-17T11:17:52.606Z,100288.89
2022-08-17T11:19:09.154Z,100296.51
2022-08-17T11:20:26.513Z,100296.61
2022-08-17T11:21:44.365Z,100296.28
2022-08-17T11:23:01.747Z,100295.80
2022-08-17T11:24:20.156Z,100301.98
2022-08-17T11:25:37.507Z,100297.37
2022-08-17T11:26:54.871Z,100292.32
2022-08-17T11:28:13.217Z,100292.97
2022-08-17T11:29:30.624Z,100292.80
2022-08-17T11:30:48.979Z,100293.18
2022-08-17T11:32:06.339Z,100292.30
2022-08-17T11:33:29.972Z,100286.09
2022-08-17T11:34:50.351Z,100289.62
2022-08-17T11:36:09.023Z,100285.02
2022-08-17T11:37:26.691Z,100285.65
2022-08-17T11:38:44.061Z,100284.53
2022-08-17T11:40:02.714Z,100290.26
2022-08-17T11:41:20.075Z,100294.02
2022-08-17T11:42:39.363Z,100300.84
2022-08-17T11:43:57.762Z,100304.22
2022-08-17T11:45:31.693Z,100306.15
2022-08-17T11:46:41.293Z,100304.92
2022-08-17T11:48:26.487Z,100305.98
2022-08-17T11:49:25.497Z,100306.37
2022-08-17T11:50:42.947Z,100305.33
2022-08-17T11:52:01.899Z,100304.53
2022-08-17T11:53:21.187Z,100305.33
2022-08-17T11:54:41.830Z,100302.02
2022-08-17T11:56:01.217Z,100301.70
2022-08-17T11:57:19.724Z,100300.34
2022-08-17T11:58:46.194Z,100301.62
2022-08-17T12:00:03.610Z,100300.50
2022-08-17T12:01:21.764Z,100304.11
2022-08-17T12:02:44.385Z,100305.23
2022-08-17T12:04:02.900Z,100300.57
2022-08-17T12:05:21.307Z,100301.16
2022-08-17T12:06:38.704Z,100302.12
2022-08-17T12:07:56.844Z,100300.83
2022-08-17T12:09:15.760Z,100305.08
2022-08-17T12:10:34.099Z,100303.30
2022-08-17T12:11:55.430Z,100306.53
2022-08-17T12:13:15.639Z,100303.03
2022-08-17T12:15:05.885Z,100304.80
2022-08-17T12:15:56.987Z,100303.36
2022-08-17T12:17:18.897Z,100305.77
2022-08-17T12:18:39.433Z,100308.56
2022-08-17T12:19:56.836Z,100307.50
2022-08-17T12:21:15.717Z,100304.22
2022-08-17T12:22:36.139Z,100304.38
2022-08-17T12:23:53.476Z,100305.19
2022-08-17T12:25:11.813Z,100306.15
2022-08-17T12:26:31.249Z,100304.59
2022-08-17T12:28:06.030Z,100305.08
2022-08-17T12:29:18.448Z,100305.88
2022-08-17T12:30:35.412Z,100303.31
2022-08-17T12:31:54.210Z,100299.23
2022-08-17T12:33:12.354Z,100298.79
2022-08-17T12:34:29.679Z,100294.30
2022-08-17T12:35:48.069Z,100293.26
2022-08-17T12:37:10.268Z,100289.67
2022-08-17T12:38:32.998Z,100294.38
2022-08-17T12:39:51.720Z,100293.16
2022-08-17T12:41:10.660Z,100297.08
2022-08-17T12:42:29.032Z,100291.70
2022-08-17T12:43:46.919Z,100292.41
2022-08-17T12:45:04.582Z,100295.30
2022-08-17T12:46:22.033Z,100296.11
2022-08-17T12:47:40.993Z,100296.43
2022-08-17T12:48:59.793Z,100293.95
2022-08-17T12:50:28.558Z,100292.39
2022-08-17T12:51:42.754Z,100294.00
2022-08-17T12:53:02.561Z,100290.73
2022-08-17T12:54:20.583Z,100289.34
2022-08-17T12:55:38.397Z,100288.95
2022-08-17T12:56:57.836Z,100289.66
2022-08-17T12:58:15.209Z,100289.69
2022-08-17T12:59:33.549Z,100287.92
2022-08-17T13:00:50.895Z,100285.66
2022-08-17T13:02:09.347Z,100289.36
2022-08-17T13:03:31.787Z,100289.78
2022-08-17T13:04:52.191Z,100283.73
2022-08-17T13:06:10.523Z,100281.73
2022-08-17T13:07:28.904Z,100277.06
2022-08-17T13:08:47.825Z,100283.41
2022-08-17T13:10:05.487Z,100275.30
2022-08-17T13:11:22.830Z,100275.62
2022-08-17T13:12:41.800Z,100272.23
2022-08-17T13:14:00.639Z,100277.55
2022-08-17T13:15:18.490Z,100269.39
2022-08-17T13:16:37.958Z,100265.86
2022-08-17T13:17:56.330Z,100266.39
2022-08-17T13:19:14.684Z,100260.20
2022-08-17T13:20:32.040Z,100257.78
2022-08-17T13:21:49.402Z,100255.81
2022-08-17T13:23:12.583Z,100249.62
2022-08-17T13:24:37.913Z,100249.14
2022-08-17T13:25:53.668Z,100250.10
2022-08-17T13:27:12.624Z,100255.63
2022-08-17T13:28:36.197Z,100260.12
2022-08-17T13:29:55.771Z,100264.20
2022-08-17T13:31:13.685Z,100261.95
2022-08-17T13:32:32.854Z,100258.20
2022-08-17T13:33:52.977Z,100258.19
2022-08-17T13:35:28.237Z,100253.84
2022-08-17T13:36:36.418Z,100258.17
2022-08-17T13:37:54.477Z,100252.22
2022-08-17T13:39:13.051Z,100259.99
2022-08-17T13:40:30.860Z,100255.07
2022-08-17T13:41:49.801Z,100256.52
2022-08-17T13:43:09.592Z,100253.39
2022-08-17T13:44:26.973Z,100249.91
2022-08-17T13:45:50.634Z,100248.23
2022-08-17T13:47:07.804Z,100254.47
2022-08-17T13:48:26.654Z,100255.73
2022-08-17T13:49:48.957Z,100256.48
2022-08-17T13:51:08.573Z,100245.59
2022-08-17T13:52:27.185Z,100247.74
2022-08-17T13:53:46.285Z,100246.45
2022-08-17T13:55:03.657Z,100240.80
2022-08-17T13:56:37.708Z,100237.59
2022-08-17T13:57:43.216Z,100243.55
2022-08-17T13:59:01.556Z,100244.89
2022-08-17T14:00:19.891Z,100242.85
2022-08-17T14:01:38.824Z,100246.97
2022-08-17T14:02:56.650Z,100245.73
2022-08-17T14:04:13.981Z,100245.25
2022-08-17T14:05:31.321Z,100244.18
2022-08-17T14:06:51.828Z,100249.00
2022-08-17T14:08:10.782Z,100248.73
2022-08-17T14:09:34.885Z,100242.22
2022-08-17T14:10:53.155Z,100247.43
2022-08-17T14:12:10.473Z,100242.76
2022-08-17T14:13:28.805Z,100247.59
2022-08-17T14:14:46.165Z,100244.52
2022-08-17T14:16:03.808Z,100244.67
2022-08-17T14:17:22.196Z,100246.54
2022-08-17T14:18:57.110Z,100252.39
2022-08-17T14:20:03.711Z,100257.86
2022-08-17T14:21:22.070Z,100262.10
2022-08-17T14:22:39.658Z,100254.70
2022-08-17T14:23:58.531Z,100258.02
2022-08-17T14:25:16.859Z,100256.62
2022-08-17T14:26:35.171Z,100256.28
2022-08-17T14:27:53.937Z,100257.27
2022-08-17T14:29:12.602Z,100253.62
2022-08-17T14:30:34.315Z,100254.95
2022-08-17T14:31:54.278Z,100253.02
2022-08-17T14:33:12.034Z,100256.89
2022-08-17T14:34:30.383Z,100264.30
2022-08-17T14:35:48.762Z,100260.66
2022-08-17T14:37:08.097Z,100259.10
2022-08-17T14:38:25.420Z,100253.06
2022-08-17T14:39:43.554Z,100256.45
2022-08-17T14:41:01.976Z,100252.36
2022-08-17T14:42:20.328Z,100255.32
2022-08-17T14:43:38.629Z,100250.77
2022-08-17T14:44:56.970Z,100258.66
2022-08-17T14:46:15.670Z,100260.27
2022-08-17T14:47:33.000Z,100260.59
2022-08-17T14:48:55.138Z,100259.73
2022-08-17T14:50:13.512Z,100256.56
2022-08-17T14:51:35.674Z,100250.95
2022-08-17T14:52:58.055Z,100245.79
2022-08-17T14:54:33.339Z,100246.76
2022-08-17T14:55:39.740Z,100244.61
2022-08-17T14:57:04.672Z,100245.47
2022-08-17T14:58:22.239Z,100248.26
2022-08-17T14:59:41.596Z,100247.12
2022-08-17T15:00:59.899Z,100249.12
2022-08-17T15:02:17.209Z,100243.55
2022-08-17T15:03:35.556Z,100240.86
2022-08-17T15:04:54.637Z,100237.48
2022-08-17T15:06:14.553Z,100239.58
2022-08-17T15:07:34.697Z,100231.95
2022-08-17T15:08:53.049Z,100235.97
2022-08-17T15:10:11.381Z,100231.53